sensor_id;sensor_type;location;lat;lon;timestamp;temperature;humidity
51500;DHT22;39101;53.478;6.158;2023-04-01T00:01:04;9.60;99.90
51500;DHT22;39101;53.478;6.158;2023-04-01T00:03:31;9.50;99.90
51500;DHT22;39101;53.478;6.158;2023-04-01T00:05:59;9.30;99.90
51500;DHT22;39101;53.478;6.158;2023-04-01T00:08:26;9.60;99.90
51500;DHT22;39101;53.478;6.158;2023-04-01T00:10:52;9.40;99.90
51500;DHT22;39101;53.478;6.158;2023-04-01T00:13:18;9.50;99.90
51500;DHT22;39101;53.478;6.158;2023-04-01T00:15:44;9.20;99.90
51500;DHT22;39101;53.478;6.158;2023-04-01T00:18:10;9.20;99.90
51500;DHT22;39101;53.478;6.158;2023-04-01T00:20:37;9.50;99.90
51500;DHT22;39101;53.478;6.158;2023-04-01T00:23:03;9.60;99.90
51500;DHT22;39101;53.478;6.158;2023-04-01T00:25:28;9.30;99.90
51500;DHT22;39101;53.478;6.158;2023-04-01T00:27:54;9.30;99.90
51500;DHT22;39101;53.478;6.158;2023-04-01T00:30:20;9.40;99.90
51500;DHT22;39101;53.478;6.158;2023-04-01T00:32:46;9.60;99.90
51500;DHT22;39101;53.478;6.158;2023-04-01T00:35:11;9.20;99.90
51500;DHT22;39101;53.478;6.158;2023-04-01T00:37:38;9.60;99.90
51500;DHT22;39101;53.478;6.158;2023-04-01T00:40:25;9.40;99.90
51500;DHT22;39101;53.478;6.158;2023-04-01T00:42:51;9.40;99.90
51500;DHT22;39101;53.478;6.158;2023-04-01T00:45:49;9.50;99.90
51500;DHT22;39101;53.478;6.158;2023-04-01T00:48:20;9.40;99.90
51500;DHT22;39101;53.478;6.158;2023-04-01T00:50:54;9.40;99.90
51500;DHT22;39101;53.478;6.158;2023-04-01T00:53:21;9.30;99.90
51500;DHT22;39101;53.478;6.158;2023-04-01T00:55:53;9.20;99.90
51500;DHT22;39101;53.478;6.158;2023-04-01T00:58:21;9.50;99.90
51500;DHT22;39101;53.478;6.158;2023-04-01T01:00:50;9.60;99.90
51500;DHT22;39101;53.478;6.158;2023-04-01T01:03:16;9.40;99.90
51500;DHT22;39101;53.478;6.158;2023-04-01T01:06:10;9.40;99.90
51500;DHT22;39101;53.478;6.158;2023-04-01T01:19:56;9.60;99.90
51500;DHT22;39101;53.478;6.158;2023-04-01T01:36:32;9.30;99.90
51500;DHT22;39101;53.478;6.158;2023-04-01T01:39:06;9.50;99.90
51500;DHT22;39101;53.478;6.158;2023-04-01T01:41:32;9.30;99.90
51500;DHT22;39101;53.478;6.158;2023-04-01T01:43:59;9.30;99.90
51500;DHT22;39101;53.478;6.158;2023-04-01T01:46:29;9.30;99.90
51500;DHT22;39101;53.478;6.158;2023-04-01T01:48:56;9.30;99.90
51500;DHT22;39101;53.478;6.158;2023-04-01T01:51:23;9.20;99.90
51500;DHT22;39101;53.478;6.158;2023-04-01T01:53:49;9.40;99.90
51500;DHT22;39101;53.478;6.158;2023-04-01T01:56:17;9.50;99.90
51500;DHT22;39101;53.478;6.158;2023-04-01T01:58:48;9.50;99.90
51500;DHT22;39101;53.478;6.158;2023-04-01T02:01:19;9.80;99.90
51500;DHT22;39101;53.478;6.158;2023-04-01T02:03:46;9.50;99.90
51500;DHT22;39101;53.478;6.158;2023-04-01T02:06:16;9.20;99.90
51500;DHT22;39101;53.478;6.158;2023-04-01T02:08:47;9.20;99.90
51500;DHT22;39101;53.478;6.158;2023-04-01T02:11:19;9.50;99.90
51500;DHT22;39101;53.478;6.158;2023-04-01T02:13:51;9.40;99.90
51500;DHT22;39101;53.478;6.158;2023-04-01T02:16:26;9.40;99.90
51500;DHT22;39101;53.478;6.158;2023-04-01T02:18:54;9.40;99.90
51500;DHT22;39101;53.478;6.158;2023-04-01T02:21:23;9.10;99.90
51500;DHT22;39101;53.478;6.158;2023-04-01T02:23:50;9.20;99.90
51500;DHT22;39101;53.478;6.158;2023-04-01T02:26:18;9.40;99.90
51500;DHT22;39101;53.478;6.158;2023-04-01T02:28:46;9.40;99.90
51500;DHT22;39101;53.478;6.158;2023-04-01T02:31:14;9.40;99.90
51500;DHT22;39101;53.478;6.158;2023-04-01T02:33:42;9.20;99.90
51500;DHT22;39101;53.478;6.158;2023-04-01T02:36:12;9.10;99.90
51500;DHT22;39101;53.478;6.158;2023-04-01T02:38:38;9.30;99.90
51500;DHT22;39101;53.478;6.158;2023-04-01T02:41:04;9.10;99.90
51500;DHT22;39101;53.478;6.158;2023-04-01T02:43:32;9.10;99.90
51500;DHT22;39101;53.478;6.158;2023-04-01T02:45:57;9.10;99.90
51500;DHT22;39101;53.478;6.158;2023-04-01T02:48:23;9.10;99.90
51500;DHT22;39101;53.478;6.158;2023-04-01T02:50:49;9.40;99.90
51500;DHT22;39101;53.478;6.158;2023-04-01T02:53:15;9.10;99.90
51500;DHT22;39101;53.478;6.158;2023-04-01T02:55:41;9.30;99.90
51500;DHT22;39101;53.478;6.158;2023-04-01T02:58:07;9.20;99.90
51500;DHT22;39101;53.478;6.158;2023-04-01T03:00:33;9.30;99.90
51500;DHT22;39101;53.478;6.158;2023-04-01T03:02:58;9.30;99.90
51500;DHT22;39101;53.478;6.158;2023-04-01T03:05:25;9.30;99.90
51500;DHT22;39101;53.478;6.158;2023-04-01T03:07:51;9.00;99.90
51500;DHT22;39101;53.478;6.158;2023-04-01T03:10:17;9.00;99.90
51500;DHT22;39101;53.478;6.158;2023-04-01T03:12:43;9.20;99.90
51500;DHT22;39101;53.478;6.158;2023-04-01T03:15:10;9.30;99.90
51500;DHT22;39101;53.478;6.158;2023-04-01T03:17:37;9.10;99.90
51500;DHT22;39101;53.478;6.158;2023-04-01T03:20:03;9.20;99.90
51500;DHT22;39101;53.478;6.158;2023-04-01T03:22:30;9.00;99.90
51500;DHT22;39101;53.478;6.158;2023-04-01T03:24:56;9.30;99.90
51500;DHT22;39101;53.478;6.158;2023-04-01T03:27:22;9.10;99.90
51500;DHT22;39101;53.478;6.158;2023-04-01T03:29:48;9.20;99.90
51500;DHT22;39101;53.478;6.158;2023-04-01T03:32:14;9.00;99.90
51500;DHT22;39101;53.478;6.158;2023-04-01T03:34:40;9.10;99.90
51500;DHT22;39101;53.478;6.158;2023-04-01T03:37:05;9.00;99.90
51500;DHT22;39101;53.478;6.158;2023-04-01T03:39:31;9.20;99.90
51500;DHT22;39101;53.478;6.158;2023-04-01T03:41:57;8.90;99.90
51500;DHT22;39101;53.478;6.158;2023-04-01T03:44:22;9.10;99.90
51500;DHT22;39101;53.478;6.158;2023-04-01T03:46:48;9.30;99.90
51500;DHT22;39101;53.478;6.158;2023-04-01T03:49:14;9.00;99.90
51500;DHT22;39101;53.478;6.158;2023-04-01T03:51:41;9.20;99.90
51500;DHT22;39101;53.478;6.158;2023-04-01T03:54:08;9.20;99.90
51500;DHT22;39101;53.478;6.158;2023-04-01T03:56:33;9.10;99.90
51500;DHT22;39101;53.478;6.158;2023-04-01T03:59:03;8.90;99.90
51500;DHT22;39101;53.478;6.158;2023-04-01T04:01:29;9.10;99.90
51500;DHT22;39101;53.478;6.158;2023-04-01T04:03:55;9.20;99.90
51500;DHT22;39101;53.478;6.158;2023-04-01T04:06:22;9.20;99.90
51500;DHT22;39101;53.478;6.158;2023-04-01T04:08:48;9.00;99.90
51500;DHT22;39101;53.478;6.158;2023-04-01T04:11:15;9.20;99.90
51500;DHT22;39101;53.478;6.158;2023-04-01T04:13:41;9.10;99.90
51500;DHT22;39101;53.478;6.158;2023-04-01T04:16:06;9.20;99.90
51500;DHT22;39101;53.478;6.158;2023-04-01T04:18:33;9.20;99.90
51500;DHT22;39101;53.478;6.158;2023-04-01T04:20:58;8.90;99.90
51500;DHT22;39101;53.478;6.158;2023-04-01T04:23:24;9.00;99.90
51500;DHT22;39101;53.478;6.158;2023-04-01T04:25:58;8.90;99.90
51500;DHT22;39101;53.478;6.158;2023-04-01T04:28:25;9.10;99.90
51500;DHT22;39101;53.478;6.158;2023-04-01T04:30:51;8.90;99.90
51500;DHT22;39101;53.478;6.158;2023-04-01T04:33:17;8.90;99.90
51500;DHT22;39101;53.478;6.158;2023-04-01T04:35:43;9.10;99.90
51500;DHT22;39101;53.478;6.158;2023-04-01T04:38:08;8.90;99.90
51500;DHT22;39101;53.478;6.158;2023-04-01T04:40:39;9.10;99.90
51500;DHT22;39101;53.478;6.158;2023-04-01T04:43:05;9.10;99.90
51500;DHT22;39101;53.478;6.158;2023-04-01T04:45:31;9.00;99.90
51500;DHT22;39101;53.478;6.158;2023-04-01T04:47:57;8.80;99.90
51500;DHT22;39101;53.478;6.158;2023-04-01T04:50:24;8.90;99.90
51500;DHT22;39101;53.478;6.158;2023-04-01T04:52:51;8.90;99.90
51500;DHT22;39101;53.478;6.158;2023-04-01T04:55:17;9.10;99.90
51500;DHT22;39101;53.478;6.158;2023-04-01T04:57:42;8.80;99.90
51500;DHT22;39101;53.478;6.158;2023-04-01T05:00:09;8.80;99.90
51500;DHT22;39101;53.478;6.158;2023-04-01T05:02:37;8.90;99.90
51500;DHT22;39101;53.478;6.158;2023-04-01T05:05:03;8.90;99.90
51500;DHT22;39101;53.478;6.158;2023-04-01T05:07:29;9.10;99.90
51500;DHT22;39101;53.478;6.158;2023-04-01T05:09:55;8.80;99.90
51500;DHT22;39101;53.478;6.158;2023-04-01T05:12:21;9.10;99.90
51500;DHT22;39101;53.478;6.158;2023-04-01T05:14:46;8.90;99.90
51500;DHT22;39101;53.478;6.158;2023-04-01T05:17:12;8.80;99.90
51500;DHT22;39101;53.478;6.158;2023-04-01T05:19:38;9.10;99.90
51500;DHT22;39101;53.478;6.158;2023-04-01T05:22:05;8.70;99.90
51500;DHT22;39101;53.478;6.158;2023-04-01T05:24:31;9.10;99.90
51500;DHT22;39101;53.478;6.158;2023-04-01T05:26:57;9.00;99.90
51500;DHT22;39101;53.478;6.158;2023-04-01T05:29:24;9.00;99.90
51500;DHT22;39101;53.478;6.158;2023-04-01T05:31:50;9.00;99.90
51500;DHT22;39101;53.478;6.158;2023-04-01T05:34:16;8.90;99.90
51500;DHT22;39101;53.478;6.158;2023-04-01T05:36:42;8.80;99.90
51500;DHT22;39101;53.478;6.158;2023-04-01T05:39:08;8.70;99.90
51500;DHT22;39101;53.478;6.158;2023-04-01T05:41:38;8.90;99.90
51500;DHT22;39101;53.478;6.158;2023-04-01T05:44:04;9.00;99.90
51500;DHT22;39101;53.478;6.158;2023-04-01T05:46:31;8.90;99.90
51500;DHT22;39101;53.478;6.158;2023-04-01T05:48:57;8.70;99.90
51500;DHT22;39101;53.478;6.158;2023-04-01T05:51:23;8.80;99.90
51500;DHT22;39101;53.478;6.158;2023-04-01T05:53:48;8.90;99.90
51500;DHT22;39101;53.478;6.158;2023-04-01T05:56:14;9.00;99.90
51500;DHT22;39101;53.478;6.158;2023-04-01T05:58:40;9.00;99.90
51500;DHT22;39101;53.478;6.158;2023-04-01T06:01:09;8.80;99.90
51500;DHT22;39101;53.478;6.158;2023-04-01T06:03:35;8.70;99.90
51500;DHT22;39101;53.478;6.158;2023-04-01T06:06:01;8.70;99.90
51500;DHT22;39101;53.478;6.158;2023-04-01T06:08:29;9.00;99.90
51500;DHT22;39101;53.478;6.158;2023-04-01T06:17:02;8.70;99.90
51500;DHT22;39101;53.478;6.158;2023-04-01T06:25:28;9.00;99.90
51500;DHT22;39101;53.478;6.158;2023-04-01T06:33:29;8.80;99.90
51500;DHT22;39101;53.478;6.158;2023-04-01T06:36:06;8.80;99.90
51500;DHT22;39101;53.478;6.158;2023-04-01T06:38:41;8.60;99.90
51500;DHT22;39101;53.478;6.158;2023-04-01T06:47:02;8.70;99.90
51500;DHT22;39101;53.478;6.158;2023-04-01T06:50:03;8.80;99.90
51500;DHT22;39101;53.478;6.158;2023-04-01T06:52:50;8.70;99.90
51500;DHT22;39101;53.478;6.158;2023-04-01T06:55:46;8.80;99.90
51500;DHT22;39101;53.478;6.158;2023-04-01T06:58:20;8.50;99.90
51500;DHT22;39101;53.478;6.158;2023-04-01T07:00:50;8.80;99.90
51500;DHT22;39101;53.478;6.158;2023-04-01T07:05:57;8.80;99.90
51500;DHT22;39101;53.478;6.158;2023-04-01T07:08:25;8.80;99.90
51500;DHT22;39101;53.478;6.158;2023-04-01T07:11:06;8.70;99.90
51500;DHT22;39101;53.478;6.158;2023-04-01T07:13:53;8.60;99.90
51500;DHT22;39101;53.478;6.158;2023-04-01T07:16:26;8.60;99.90
51500;DHT22;39101;53.478;6.158;2023-04-01T07:24:21;8.80;99.90
51500;DHT22;39101;53.478;6.158;2023-04-01T07:26:49;8.70;99.90
51500;DHT22;39101;53.478;6.158;2023-04-01T07:29:18;8.70;99.90
51500;DHT22;39101;53.478;6.158;2023-04-01T07:41:01;8.60;99.90
51500;DHT22;39101;53.478;6.158;2023-04-01T07:43:53;8.60;99.90
51500;DHT22;39101;53.478;6.158;2023-04-01T07:46:41;8.30;99.90
51500;DHT22;39101;53.478;6.158;2023-04-01T07:49:18;8.50;99.90
51500;DHT22;39101;53.478;6.158;2023-04-01T07:54:50;8.50;99.90
51500;DHT22;39101;53.478;6.158;2023-04-01T07:57:27;8.50;99.90
51500;DHT22;39101;53.478;6.158;2023-04-01T08:05:28;8.60;99.90
51500;DHT22;39101;53.478;6.158;2023-04-01T08:10:52;8.50;99.90
51500;DHT22;39101;53.478;6.158;2023-04-01T08:16:26;8.60;99.90
51500;DHT22;39101;53.478;6.158;2023-04-01T08:21:52;8.70;99.90
51500;DHT22;39101;53.478;6.158;2023-04-01T08:26:53;8.70;99.90
51500;DHT22;39101;53.478;6.158;2023-04-01T08:29:26;8.60;99.90
51500;DHT22;39101;53.478;6.158;2023-04-01T08:31:56;8.80;99.90
51500;DHT22;39101;53.478;6.158;2023-04-01T08:34:28;8.90;99.90
51500;DHT22;39101;53.478;6.158;2023-04-01T08:37:14;9.00;99.90
51500;DHT22;39101;53.478;6.158;2023-04-01T08:39:47;8.90;99.90
51500;DHT22;39101;53.478;6.158;2023-04-01T08:50:31;8.80;99.90
51500;DHT22;39101;53.478;6.158;2023-04-01T09:04:39;9.00;99.90
51500;DHT22;39101;53.478;6.158;2023-04-01T09:10:11;8.80;99.90
51500;DHT22;39101;53.478;6.158;2023-04-01T09:13:11;8.90;99.90
51500;DHT22;39101;53.478;6.158;2023-04-01T09:18:49;8.90;99.90
51500;DHT22;39101;53.478;6.158;2023-04-01T09:21:49;8.80;99.90
51500;DHT22;39101;53.478;6.158;2023-04-01T09:35:22;8.90;99.90
51500;DHT22;39101;53.478;6.158;2023-04-01T09:48:12;8.90;99.90
51500;DHT22;39101;53.478;6.158;2023-04-01T09:53:26;8.90;99.90
51500;DHT22;39101;53.478;6.158;2023-04-01T09:56:13;8.70;99.90
51500;DHT22;39101;53.478;6.158;2023-04-01T10:20:42;8.50;99.90
51500;DHT22;39101;53.478;6.158;2023-04-01T10:34:10;8.60;99.90
51500;DHT22;39101;53.478;6.158;2023-04-01T10:36:53;8.70;99.90
51500;DHT22;39101;53.478;6.158;2023-04-01T10:45:09;8.80;99.90
51500;DHT22;39101;53.478;6.158;2023-04-01T10:53:25;8.80;99.90
51500;DHT22;39101;53.478;6.158;2023-04-01T11:10:04;8.80;99.90
51500;DHT22;39101;53.478;6.158;2023-04-01T11:15:34;8.80;99.90
51500;DHT22;39101;53.478;6.158;2023-04-01T11:18:40;8.80;99.90
51500;DHT22;39101;53.478;6.158;2023-04-01T11:38:41;8.80;99.90
51500;DHT22;39101;53.478;6.158;2023-04-01T11:57:28;9.00;99.90
51500;DHT22;39101;53.478;6.158;2023-04-01T12:08:01;9.50;99.90
51500;DHT22;39101;53.478;6.158;2023-04-01T12:21:15;9.20;99.90
51500;DHT22;39101;53.478;6.158;2023-04-01T12:35:27;9.20;99.90
51500;DHT22;39101;53.478;6.158;2023-04-01T12:51:32;8.80;99.90
51500;DHT22;39101;53.478;6.158;2023-04-01T12:57:20;8.80;99.90
51500;DHT22;39101;53.478;6.158;2023-04-01T13:13:24;8.50;99.90
51500;DHT22;39101;53.478;6.158;2023-04-01T13:21:29;8.40;99.90
51500;DHT22;39101;53.478;6.158;2023-04-01T13:29:39;8.30;99.90
51500;DHT22;39101;53.478;6.158;2023-04-01T13:32:44;8.20;99.90
51500;DHT22;39101;53.478;6.158;2023-04-01T13:41:46;8.40;99.90
51500;DHT22;39101;53.478;6.158;2023-04-01T13:44:28;8.20;99.90
51500;DHT22;39101;53.478;6.158;2023-04-01T13:47:28;8.10;99.90
51500;DHT22;39101;53.478;6.158;2023-04-01T13:58:48;8.10;99.90
51500;DHT22;39101;53.478;6.158;2023-04-01T14:09:34;7.70;99.90
51500;DHT22;39101;53.478;6.158;2023-04-01T14:17:46;7.80;99.90
51500;DHT22;39101;53.478;6.158;2023-04-01T14:23:35;7.40;99.90
51500;DHT22;39101;53.478;6.158;2023-04-01T14:37:07;7.40;99.90
51500;DHT22;39101;53.478;6.158;2023-04-01T14:47:48;7.30;99.90
51500;DHT22;39101;53.478;6.158;2023-04-01T14:50:19;7.30;99.90
51500;DHT22;39101;53.478;6.158;2023-04-01T14:53:28;7.30;99.90
51500;DHT22;39101;53.478;6.158;2023-04-01T14:56:00;7.30;99.90
51500;DHT22;39101;53.478;6.158;2023-04-01T14:58:46;7.20;99.90
51500;DHT22;39101;53.478;6.158;2023-04-01T15:04:04;7.40;99.90
51500;DHT22;39101;53.478;6.158;2023-04-01T15:13:04;7.30;99.90
51500;DHT22;39101;53.478;6.158;2023-04-01T15:29:18;7.00;99.90
51500;DHT22;39101;53.478;6.158;2023-04-01T15:32:00;7.20;99.90
51500;DHT22;39101;53.478;6.158;2023-04-01T15:37:37;6.90;99.90
51500;DHT22;39101;53.478;6.158;2023-04-01T15:45:31;7.10;99.90
51500;DHT22;39101;53.478;6.158;2023-04-01T15:53:46;6.80;99.90
51500;DHT22;39101;53.478;6.158;2023-04-01T16:02:17;6.80;99.90
51500;DHT22;39101;53.478;6.158;2023-04-01T16:21:37;6.60;99.90
51500;DHT22;39101;53.478;6.158;2023-04-01T16:24:19;6.50;99.90
51500;DHT22;39101;53.478;6.158;2023-04-01T16:27:02;6.80;99.90
51500;DHT22;39101;53.478;6.158;2023-04-01T16:35:02;6.70;99.90
51500;DHT22;39101;53.478;6.158;2023-04-01T16:37:36;6.40;99.90
51500;DHT22;39101;53.478;6.158;2023-04-01T16:40:23;6.50;99.90
51500;DHT22;39101;53.478;6.158;2023-04-01T16:42:57;6.40;99.90
51500;DHT22;39101;53.478;6.158;2023-04-01T16:48:01;6.60;99.90
51500;DHT22;39101;53.478;6.158;2023-04-01T16:53:25;6.40;99.90
51500;DHT22;39101;53.478;6.158;2023-04-01T16:56:10;6.40;99.90
51500;DHT22;39101;53.478;6.158;2023-04-01T16:58:39;6.40;99.90
51500;DHT22;39101;53.478;6.158;2023-04-01T17:01:19;6.40;99.90
51500;DHT22;39101;53.478;6.158;2023-04-01T17:03:46;6.30;99.90
51500;DHT22;39101;53.478;6.158;2023-04-01T17:09:19;6.30;99.90
51500;DHT22;39101;53.478;6.158;2023-04-01T17:17:19;6.30;99.90
51500;DHT22;39101;53.478;6.158;2023-04-01T17:20:46;6.30;99.90
51500;DHT22;39101;53.478;6.158;2023-04-01T17:28:43;6.20;99.90
51500;DHT22;39101;53.478;6.158;2023-04-01T17:37:22;6.10;99.90
51500;DHT22;39101;53.478;6.158;2023-04-01T17:45:44;6.10;99.90
51500;DHT22;39101;53.478;6.158;2023-04-01T17:51:36;6.10;99.90
51500;DHT22;39101;53.478;6.158;2023-04-01T17:57:23;6.30;99.90
51500;DHT22;39101;53.478;6.158;2023-04-01T17:59:54;6.10;99.90
51500;DHT22;39101;53.478;6.158;2023-04-01T18:24:06;6.00;99.90
51500;DHT22;39101;53.478;6.158;2023-04-01T18:26:39;5.90;99.90
51500;DHT22;39101;53.478;6.158;2023-04-01T18:29:24;6.10;99.90
51500;DHT22;39101;53.478;6.158;2023-04-01T18:31:56;6.00;99.90
51500;DHT22;39101;53.478;6.158;2023-04-01T18:37:22;5.80;99.90
51500;DHT22;39101;53.478;6.158;2023-04-01T18:39:53;6.00;99.90
51500;DHT22;39101;53.478;6.158;2023-04-01T18:42:45;5.90;99.90
51500;DHT22;39101;53.478;6.158;2023-04-01T18:45:22;5.80;99.90
51500;DHT22;39101;53.478;6.158;2023-04-01T18:51:21;5.80;99.90
51500;DHT22;39101;53.478;6.158;2023-04-01T18:53:58;5.90;99.90
51500;DHT22;39101;53.478;6.158;2023-04-01T18:56:37;5.80;99.90
51500;DHT22;39101;53.478;6.158;2023-04-01T19:01:51;5.90;99.90
51500;DHT22;39101;53.478;6.158;2023-04-01T19:04:45;5.70;99.90
51500;DHT22;39101;53.478;6.158;2023-04-01T19:07:42;5.70;99.90
51500;DHT22;39101;53.478;6.158;2023-04-01T19:18:31;5.80;99.90
51500;DHT22;39101;53.478;6.158;2023-04-01T19:26:39;5.70;99.90
51500;DHT22;39101;53.478;6.158;2023-04-01T19:29:35;5.70;99.90
51500;DHT22;39101;53.478;6.158;2023-04-01T19:50:40;5.50;99.90
51500;DHT22;39101;53.478;6.158;2023-04-01T19:53:36;5.50;99.90
51500;DHT22;39101;53.478;6.158;2023-04-01T20:01:27;5.40;99.90
51500;DHT22;39101;53.478;6.158;2023-04-01T20:04:04;5.40;99.90
51500;DHT22;39101;53.478;6.158;2023-04-01T20:15:40;5.50;99.90
51500;DHT22;39101;53.478;6.158;2023-04-01T20:18:21;5.50;99.90
51500;DHT22;39101;53.478;6.158;2023-04-01T20:26:35;5.30;99.90
51500;DHT22;39101;53.478;6.158;2023-04-01T20:34:41;5.30;99.90
51500;DHT22;39101;53.478;6.158;2023-04-01T20:50:50;5.30;99.90
51500;DHT22;39101;53.478;6.158;2023-04-01T20:53:28;5.20;99.90
51500;DHT22;39101;53.478;6.158;2023-04-01T21:02:09;5.30;99.90
51500;DHT22;39101;53.478;6.158;2023-04-01T21:12:30;5.30;99.90
51500;DHT22;39101;53.478;6.158;2023-04-01T21:24:02;5.10;99.90
51500;DHT22;39101;53.478;6.158;2023-04-01T21:31:58;4.80;99.90
51500;DHT22;39101;53.478;6.158;2023-04-01T22:05:44;4.40;99.90
51500;DHT22;39101;53.478;6.158;2023-04-01T22:09:34;4.40;99.90
51500;DHT22;39101;53.478;6.158;2023-04-01T22:14:25;4.20;99.90
51500;DHT22;39101;53.478;6.158;2023-04-01T22:17:16;4.20;99.90
51500;DHT22;39101;53.478;6.158;2023-04-01T22:28:29;4.00;99.90
51500;DHT22;39101;53.478;6.158;2023-04-01T22:30:59;4.20;99.90
51500;DHT22;39101;53.478;6.158;2023-04-01T22:50:25;4.00;99.90
51500;DHT22;39101;53.478;6.158;2023-04-01T22:53:22;3.80;99.90
51500;DHT22;39101;53.478;6.158;2023-04-01T22:55:49;4.00;99.90
51500;DHT22;39101;53.478;6.158;2023-04-01T22:58:17;3.90;99.90
51500;DHT22;39101;53.478;6.158;2023-04-01T23:00:54;4.00;99.90
51500;DHT22;39101;53.478;6.158;2023-04-01T23:05:55;3.70;99.90
51500;DHT22;39101;53.478;6.158;2023-04-01T23:08:35;3.70;99.90
51500;DHT22;39101;53.478;6.158;2023-04-01T23:11:14;3.70;99.90
51500;DHT22;39101;53.478;6.158;2023-04-01T23:13:49;3.70;99.90
51500;DHT22;39101;53.478;6.158;2023-04-01T23:16:26;3.70;99.90
51500;DHT22;39101;53.478;6.158;2023-04-01T23:19:11;3.70;99.90
51500;DHT22;39101;53.478;6.158;2023-04-01T23:21:53;3.70;99.90
51500;DHT22;39101;53.478;6.158;2023-04-01T23:24:44;3.70;99.90
51500;DHT22;39101;53.478;6.158;2023-04-01T23:27:26;3.80;99.90
51500;DHT22;39101;53.478;6.158;2023-04-01T23:29:53;3.80;99.90
51500;DHT22;39101;53.478;6.158;2023-04-01T23:32:19;3.70;99.90
51500;DHT22;39101;53.478;6.158;2023-04-01T23:34:55;3.70;99.90
51500;DHT22;39101;53.478;6.158;2023-04-01T23:37:22;3.60;99.90
51500;DHT22;39101;53.478;6.158;2023-04-01T23:39:53;3.70;99.90
51500;DHT22;39101;53.478;6.158;2023-04-01T23:42:32;3.70;99.90
51500;DHT22;39101;53.478;6.158;2023-04-01T23:45:02;3.70;99.90
51500;DHT22;39101;53.478;6.158;2023-04-01T23:47:34;3.60;99.90
51500;DHT22;39101;53.478;6.158;2023-04-01T23:50:10;3.60;99.90
51500;DHT22;39101;53.478;6.158;2023-04-01T23:52:43;3.70;99.90
51500;DHT22;39101;53.478;6.158;2023-04-01T23:55:17;3.50;99.90
